sensor_id;sensor_type;location;lat;lon;timestamp;P1;durP1;ratioP1;P2;durP2;ratioP2
63902;SDS011;50072;50.678;13.938;2023-07-13T00:00:03;5.63;;;2.00;;
63902;SDS011;50072;50.678;13.938;2023-07-13T00:02:55;4.43;;;1.70;;
63902;SDS011;50072;50.678;13.938;2023-07-13T00:05:23;3.17;;;1.95;;
63902;SDS011;50072;50.678;13.938;2023-07-13T00:07:50;3.53;;;1.58;;
63902;SDS011;50072;50.678;13.938;2023-07-13T00:10:16;2.40;;;1.58;;
63902;SDS011;50072;50.678;13.938;2023-07-13T00:12:43;2.53;;;1.45;;
63902;SDS011;50072;50.678;13.938;2023-07-13T00:15:20;2.35;;;1.42;;
63902;SDS011;50072;50.678;13.938;2023-07-13T00:17:51;3.20;;;1.60;;
63902;SDS011;50072;50.678;13.938;2023-07-13T00:20:19;4.15;;;1.70;;
63902;SDS011;50072;50.678;13.938;2023-07-13T00:22:48;2.28;;;1.30;;
63902;SDS011;50072;50.678;13.938;2023-07-13T00:25:14;4.85;;;1.80;;
63902;SDS011;50072;50.678;13.938;2023-07-13T00:27:41;5.63;;;1.77;;
63902;SDS011;50072;50.678;13.938;2023-07-13T00:30:08;5.97;;;1.52;;
63902;SDS011;50072;50.678;13.938;2023-07-13T00:32:34;3.08;;;1.60;;
63902;SDS011;50072;50.678;13.938;2023-07-13T00:35:00;5.70;;;1.80;;
63902;SDS011;50072;50.678;13.938;2023-07-13T00:37:27;5.88;;;1.70;;
63902;SDS011;50072;50.678;13.938;2023-07-13T00:39:52;3.15;;;1.90;;
63902;SDS011;50072;50.678;13.938;2023-07-13T00:42:18;3.25;;;1.75;;
63902;SDS011;50072;50.678;13.938;2023-07-13T00:47:45;3.13;;;1.48;;
63902;SDS011;50072;50.678;13.938;2023-07-13T00:50:12;4.20;;;1.50;;
63902;SDS011;50072;50.678;13.938;2023-07-13T00:52:43;3.70;;;1.60;;
63902;SDS011;50072;50.678;13.938;2023-07-13T00:55:10;3.22;;;1.60;;
63902;SDS011;50072;50.678;13.938;2023-07-13T00:57:38;2.08;;;1.20;;
63902;SDS011;50072;50.678;13.938;2023-07-13T01:00:06;3.35;;;1.60;;
63902;SDS011;50072;50.678;13.938;2023-07-13T01:02:38;4.05;;;1.80;;
63902;SDS011;50072;50.678;13.938;2023-07-13T01:05:12;4.25;;;1.80;;
63902;SDS011;50072;50.678;13.938;2023-07-13T01:07:40;6.78;;;2.13;;
63902;SDS011;50072;50.678;13.938;2023-07-13T01:10:08;8.25;;;2.20;;
63902;SDS011;50072;50.678;13.938;2023-07-13T01:12:34;5.75;;;1.92;;
63902;SDS011;50072;50.678;13.938;2023-07-13T01:15:01;6.28;;;2.05;;
63902;SDS011;50072;50.678;13.938;2023-07-13T01:17:30;3.63;;;2.10;;
63902;SDS011;50072;50.678;13.938;2023-07-13T01:19:59;3.70;;;1.70;;
63902;SDS011;50072;50.678;13.938;2023-07-13T01:22:25;4.57;;;1.80;;
63902;SDS011;50072;50.678;13.938;2023-07-13T01:24:52;3.83;;;2.15;;
63902;SDS011;50072;50.678;13.938;2023-07-13T01:27:23;3.35;;;1.65;;
63902;SDS011;50072;50.678;13.938;2023-07-13T01:32:19;3.35;;;1.73;;
63902;SDS011;50072;50.678;13.938;2023-07-13T01:34:50;5.18;;;1.80;;
63902;SDS011;50072;50.678;13.938;2023-07-13T01:37:19;3.33;;;1.55;;
63902;SDS011;50072;50.678;13.938;2023-07-13T01:39:46;3.13;;;1.95;;
63902;SDS011;50072;50.678;13.938;2023-07-13T01:42:13;3.95;;;1.67;;
63902;SDS011;50072;50.678;13.938;2023-07-13T01:44:39;7.20;;;1.83;;
63902;SDS011;50072;50.678;13.938;2023-07-13T01:47:06;3.67;;;2.00;;
63902;SDS011;50072;50.678;13.938;2023-07-13T01:49:31;4.07;;;1.80;;
63902;SDS011;50072;50.678;13.938;2023-07-13T01:51:57;3.03;;;1.80;;
63902;SDS011;50072;50.678;13.938;2023-07-13T01:54:23;3.90;;;1.80;;
63902;SDS011;50072;50.678;13.938;2023-07-13T01:56:49;4.65;;;1.88;;
63902;SDS011;50072;50.678;13.938;2023-07-13T01:59:15;2.90;;;1.80;;
63902;SDS011;50072;50.678;13.938;2023-07-13T02:01:41;2.85;;;1.80;;
63902;SDS011;50072;50.678;13.938;2023-07-13T02:04:06;2.55;;;1.75;;
63902;SDS011;50072;50.678;13.938;2023-07-13T02:06:32;3.90;;;1.90;;
63902;SDS011;50072;50.678;13.938;2023-07-13T02:08:58;3.80;;;1.70;;
63902;SDS011;50072;50.678;13.938;2023-07-13T02:11:25;3.05;;;1.70;;
63902;SDS011;50072;50.678;13.938;2023-07-13T02:13:58;4.22;;;1.85;;
63902;SDS011;50072;50.678;13.938;2023-07-13T02:16:26;3.33;;;1.95;;
63902;SDS011;50072;50.678;13.938;2023-07-13T02:18:52;2.92;;;1.90;;
63902;SDS011;50072;50.678;13.938;2023-07-13T02:21:18;2.85;;;1.90;;
63902;SDS011;50072;50.678;13.938;2023-07-13T02:23:44;4.47;;;2.08;;
63902;SDS011;50072;50.678;13.938;2023-07-13T02:26:10;3.55;;;2.20;;
63902;SDS011;50072;50.678;13.938;2023-07-13T02:28:35;3.53;;;2.00;;
63902;SDS011;50072;50.678;13.938;2023-07-13T02:31:08;4.63;;;2.03;;
63902;SDS011;50072;50.678;13.938;2023-07-13T02:33:35;4.80;;;2.20;;
63902;SDS011;50072;50.678;13.938;2023-07-13T02:36:02;3.88;;;1.98;;
63902;SDS011;50072;50.678;13.938;2023-07-13T02:38:28;5.28;;;2.20;;
63902;SDS011;50072;50.678;13.938;2023-07-13T02:40:54;5.90;;;2.00;;
63902;SDS011;50072;50.678;13.938;2023-07-13T02:43:20;2.90;;;1.80;;
63902;SDS011;50072;50.678;13.938;2023-07-13T02:45:46;3.60;;;1.98;;
63902;SDS011;50072;50.678;13.938;2023-07-13T02:48:13;4.13;;;2.00;;
63902;SDS011;50072;50.678;13.938;2023-07-13T02:50:39;4.25;;;2.20;;
63902;SDS011;50072;50.678;13.938;2023-07-13T02:53:05;4.40;;;2.22;;
63902;SDS011;50072;50.678;13.938;2023-07-13T02:55:31;6.70;;;2.35;;
63902;SDS011;50072;50.678;13.938;2023-07-13T02:57:57;6.18;;;2.05;;
63902;SDS011;50072;50.678;13.938;2023-07-13T03:00:23;4.88;;;2.15;;
63902;SDS011;50072;50.678;13.938;2023-07-13T03:02:49;4.90;;;2.08;;
63902;SDS011;50072;50.678;13.938;2023-07-13T03:05:15;3.75;;;2.38;;
63902;SDS011;50072;50.678;13.938;2023-07-13T03:07:41;3.53;;;2.00;;
63902;SDS011;50072;50.678;13.938;2023-07-13T03:10:07;3.50;;;2.00;;
63902;SDS011;50072;50.678;13.938;2023-07-13T03:12:34;5.03;;;2.38;;
63902;SDS011;50072;50.678;13.938;2023-07-13T03:15:00;3.03;;;1.90;;
63902;SDS011;50072;50.678;13.938;2023-07-13T03:17:26;4.72;;;1.85;;
63902;SDS011;50072;50.678;13.938;2023-07-13T03:19:52;3.72;;;2.10;;
63902;SDS011;50072;50.678;13.938;2023-07-13T03:22:20;3.67;;;2.03;;
63902;SDS011;50072;50.678;13.938;2023-07-13T03:24:45;3.72;;;2.30;;
63902;SDS011;50072;50.678;13.938;2023-07-13T03:27:11;3.67;;;1.92;;
63902;SDS011;50072;50.678;13.938;2023-07-13T03:29:38;4.32;;;2.20;;
63902;SDS011;50072;50.678;13.938;2023-07-13T03:32:04;4.07;;;2.30;;
63902;SDS011;50072;50.678;13.938;2023-07-13T03:34:30;3.90;;;1.95;;
63902;SDS011;50072;50.678;13.938;2023-07-13T03:36:56;4.75;;;2.10;;
63902;SDS011;50072;50.678;13.938;2023-07-13T03:39:22;7.03;;;1.73;;
63902;SDS011;50072;50.678;13.938;2023-07-13T03:41:48;6.05;;;2.05;;
63902;SDS011;50072;50.678;13.938;2023-07-13T03:44:15;5.38;;;1.63;;
63902;SDS011;50072;50.678;13.938;2023-07-13T03:46:42;3.35;;;1.90;;
63902;SDS011;50072;50.678;13.938;2023-07-13T03:49:08;5.97;;;2.10;;
63902;SDS011;50072;50.678;13.938;2023-07-13T03:51:35;3.30;;;2.38;;
63902;SDS011;50072;50.678;13.938;2023-07-13T03:54:02;4.85;;;1.98;;
63902;SDS011;50072;50.678;13.938;2023-07-13T03:56:28;4.75;;;2.10;;
63902;SDS011;50072;50.678;13.938;2023-07-13T03:58:56;4.25;;;1.90;;
63902;SDS011;50072;50.678;13.938;2023-07-13T04:01:22;4.63;;;1.80;;
63902;SDS011;50072;50.678;13.938;2023-07-13T04:03:51;2.45;;;1.67;;
63902;SDS011;50072;50.678;13.938;2023-07-13T04:06:18;7.30;;;2.15;;
63902;SDS011;50072;50.678;13.938;2023-07-13T04:08:52;4.35;;;2.20;;
63902;SDS011;50072;50.678;13.938;2023-07-13T04:11:19;4.60;;;2.45;;
63902;SDS011;50072;50.678;13.938;2023-07-13T04:13:46;7.15;;;2.25;;
63902;SDS011;50072;50.678;13.938;2023-07-13T04:16:13;3.90;;;2.10;;
63902;SDS011;50072;50.678;13.938;2023-07-13T04:18:39;6.40;;;2.15;;
63902;SDS011;50072;50.678;13.938;2023-07-13T04:21:06;5.55;;;2.33;;
63902;SDS011;50072;50.678;13.938;2023-07-13T04:23:33;5.00;;;2.22;;
63902;SDS011;50072;50.678;13.938;2023-07-13T04:25:58;4.85;;;2.15;;
63902;SDS011;50072;50.678;13.938;2023-07-13T04:28:25;4.05;;;2.15;;
63902;SDS011;50072;50.678;13.938;2023-07-13T04:30:51;6.53;;;2.10;;
63902;SDS011;50072;50.678;13.938;2023-07-13T04:33:17;2.90;;;2.10;;
63902;SDS011;50072;50.678;13.938;2023-07-13T04:35:51;9.73;;;2.63;;
63902;SDS011;50072;50.678;13.938;2023-07-13T04:38:23;4.88;;;2.00;;
63902;SDS011;50072;50.678;13.938;2023-07-13T04:40:50;4.55;;;2.20;;
63902;SDS011;50072;50.678;13.938;2023-07-13T04:43:16;3.65;;;2.10;;
63902;SDS011;50072;50.678;13.938;2023-07-13T04:45:42;3.03;;;1.85;;
63902;SDS011;50072;50.678;13.938;2023-07-13T04:48:08;3.90;;;2.40;;
63902;SDS011;50072;50.678;13.938;2023-07-13T04:50:36;4.15;;;2.08;;
63902;SDS011;50072;50.678;13.938;2023-07-13T04:53:02;4.22;;;2.00;;
63902;SDS011;50072;50.678;13.938;2023-07-13T04:55:29;4.68;;;1.83;;
63902;SDS011;50072;50.678;13.938;2023-07-13T04:57:56;3.95;;;2.22;;
63902;SDS011;50072;50.678;13.938;2023-07-13T05:00:24;3.97;;;2.40;;
63902;SDS011;50072;50.678;13.938;2023-07-13T05:02:51;3.65;;;1.90;;
63902;SDS011;50072;50.678;13.938;2023-07-13T05:05:17;5.22;;;2.00;;
63902;SDS011;50072;50.678;13.938;2023-07-13T05:07:43;4.30;;;1.88;;
63902;SDS011;50072;50.678;13.938;2023-07-13T05:10:10;4.45;;;1.88;;
63902;SDS011;50072;50.678;13.938;2023-07-13T05:12:36;4.00;;;2.00;;
63902;SDS011;50072;50.678;13.938;2023-07-13T05:15:02;3.72;;;1.90;;
63902;SDS011;50072;50.678;13.938;2023-07-13T05:17:29;4.38;;;1.77;;
63902;SDS011;50072;50.678;13.938;2023-07-13T05:19:54;4.50;;;2.10;;
63902;SDS011;50072;50.678;13.938;2023-07-13T05:22:20;3.28;;;1.90;;
63902;SDS011;50072;50.678;13.938;2023-07-13T05:24:47;3.92;;;1.92;;
63902;SDS011;50072;50.678;13.938;2023-07-13T05:27:13;4.78;;;2.05;;
63902;SDS011;50072;50.678;13.938;2023-07-13T05:29:39;4.30;;;2.10;;
63902;SDS011;50072;50.678;13.938;2023-07-13T05:32:06;5.38;;;2.20;;
63902;SDS011;50072;50.678;13.938;2023-07-13T05:34:32;7.43;;;2.47;;
63902;SDS011;50072;50.678;13.938;2023-07-13T05:36:59;3.58;;;2.50;;
63902;SDS011;50072;50.678;13.938;2023-07-13T05:39:26;4.95;;;2.95;;
63902;SDS011;50072;50.678;13.938;2023-07-13T05:41:53;4.63;;;2.47;;
63902;SDS011;50072;50.678;13.938;2023-07-13T05:44:19;4.82;;;2.22;;
63902;SDS011;50072;50.678;13.938;2023-07-13T05:46:45;6.38;;;2.83;;
63902;SDS011;50072;50.678;13.938;2023-07-13T05:49:11;3.88;;;2.65;;
63902;SDS011;50072;50.678;13.938;2023-07-13T05:51:38;4.88;;;2.50;;
63902;SDS011;50072;50.678;13.938;2023-07-13T05:54:04;4.45;;;2.50;;
63902;SDS011;50072;50.678;13.938;2023-07-13T05:56:31;4.90;;;2.53;;
63902;SDS011;50072;50.678;13.938;2023-07-13T05:58:57;6.28;;;2.80;;
63902;SDS011;50072;50.678;13.938;2023-07-13T06:01:23;6.68;;;2.85;;
63902;SDS011;50072;50.678;13.938;2023-07-13T06:03:50;7.05;;;2.47;;
63902;SDS011;50072;50.678;13.938;2023-07-13T06:06:16;6.82;;;3.30;;
63902;SDS011;50072;50.678;13.938;2023-07-13T06:08:43;5.85;;;2.85;;
63902;SDS011;50072;50.678;13.938;2023-07-13T06:11:17;3.75;;;2.42;;
63902;SDS011;50072;50.678;13.938;2023-07-13T06:13:48;6.50;;;2.50;;
63902;SDS011;50072;50.678;13.938;2023-07-13T06:16:16;5.32;;;2.63;;
63902;SDS011;50072;50.678;13.938;2023-07-13T06:18:44;7.05;;;3.00;;
63902;SDS011;50072;50.678;13.938;2023-07-13T06:21:15;5.63;;;2.08;;
63902;SDS011;50072;50.678;13.938;2023-07-13T06:23:46;4.70;;;2.38;;
63902;SDS011;50072;50.678;13.938;2023-07-13T06:26:15;5.05;;;2.38;;
63902;SDS011;50072;50.678;13.938;2023-07-13T06:28:44;8.90;;;2.60;;
63902;SDS011;50072;50.678;13.938;2023-07-13T06:31:12;6.05;;;2.42;;
63902;SDS011;50072;50.678;13.938;2023-07-13T06:33:39;5.32;;;2.20;;
63902;SDS011;50072;50.678;13.938;2023-07-13T06:36:06;5.07;;;2.22;;
63902;SDS011;50072;50.678;13.938;2023-07-13T06:38:34;3.58;;;2.22;;
63902;SDS011;50072;50.678;13.938;2023-07-13T06:41:01;4.90;;;2.25;;
63902;SDS011;50072;50.678;13.938;2023-07-13T06:43:28;4.18;;;2.03;;
63902;SDS011;50072;50.678;13.938;2023-07-13T06:45:56;3.47;;;1.90;;
63902;SDS011;50072;50.678;13.938;2023-07-13T06:48:22;3.60;;;1.95;;
63902;SDS011;50072;50.678;13.938;2023-07-13T06:50:49;5.00;;;1.80;;
63902;SDS011;50072;50.678;13.938;2023-07-13T06:53:17;5.43;;;2.00;;
63902;SDS011;50072;50.678;13.938;2023-07-13T06:55:44;3.13;;;2.00;;
63902;SDS011;50072;50.678;13.938;2023-07-13T06:58:12;5.10;;;1.88;;
63902;SDS011;50072;50.678;13.938;2023-07-13T07:00:40;7.18;;;1.90;;
63902;SDS011;50072;50.678;13.938;2023-07-13T07:03:07;4.57;;;1.88;;
63902;SDS011;50072;50.678;13.938;2023-07-13T07:05:34;6.07;;;1.73;;
63902;SDS011;50072;50.678;13.938;2023-07-13T07:08:03;3.15;;;1.50;;
63902;SDS011;50072;50.678;13.938;2023-07-13T07:10:30;3.60;;;1.40;;
63902;SDS011;50072;50.678;13.938;2023-07-13T07:12:57;3.30;;;1.90;;
63902;SDS011;50072;50.678;13.938;2023-07-13T07:15:25;3.47;;;1.50;;
63902;SDS011;50072;50.678;13.938;2023-07-13T07:17:52;5.95;;;2.10;;
63902;SDS011;50072;50.678;13.938;2023-07-13T07:20:19;4.13;;;1.65;;
63902;SDS011;50072;50.678;13.938;2023-07-13T07:22:45;7.72;;;1.85;;
63902;SDS011;50072;50.678;13.938;2023-07-13T07:25:12;3.45;;;1.80;;
63902;SDS011;50072;50.678;13.938;2023-07-13T07:27:39;3.40;;;1.77;;
63902;SDS011;50072;50.678;13.938;2023-07-13T07:30:05;7.75;;;1.67;;
63902;SDS011;50072;50.678;13.938;2023-07-13T07:32:32;4.15;;;1.70;;
63902;SDS011;50072;50.678;13.938;2023-07-13T07:34:58;3.10;;;1.77;;
63902;SDS011;50072;50.678;13.938;2023-07-13T07:37:24;3.25;;;1.60;;
63902;SDS011;50072;50.678;13.938;2023-07-13T07:39:51;5.18;;;1.67;;
63902;SDS011;50072;50.678;13.938;2023-07-13T07:42:17;5.90;;;1.63;;
63902;SDS011;50072;50.678;13.938;2023-07-13T07:44:43;5.53;;;1.63;;
63902;SDS011;50072;50.678;13.938;2023-07-13T07:47:09;4.53;;;1.60;;
63902;SDS011;50072;50.678;13.938;2023-07-13T07:49:36;7.72;;;2.22;;
63902;SDS011;50072;50.678;13.938;2023-07-13T07:52:04;3.58;;;1.45;;
63902;SDS011;50072;50.678;13.938;2023-07-13T07:54:31;3.95;;;1.52;;
63902;SDS011;50072;50.678;13.938;2023-07-13T07:56:57;4.20;;;1.50;;
63902;SDS011;50072;50.678;13.938;2023-07-13T07:59:23;5.47;;;1.60;;
63902;SDS011;50072;50.678;13.938;2023-07-13T08:01:49;3.78;;;1.40;;
63902;SDS011;50072;50.678;13.938;2023-07-13T08:04:16;4.07;;;1.33;;
63902;SDS011;50072;50.678;13.938;2023-07-13T08:06:42;3.85;;;1.40;;
63902;SDS011;50072;50.678;13.938;2023-07-13T08:09:08;4.30;;;1.38;;
63902;SDS011;50072;50.678;13.938;2023-07-13T08:11:35;1.77;;;1.30;;
63902;SDS011;50072;50.678;13.938;2023-07-13T08:14:01;3.65;;;1.20;;
63902;SDS011;50072;50.678;13.938;2023-07-13T08:16:27;2.00;;;1.30;;
63902;SDS011;50072;50.678;13.938;2023-07-13T08:18:53;2.38;;;1.30;;
63902;SDS011;50072;50.678;13.938;2023-07-13T08:21:20;2.45;;;1.40;;
63902;SDS011;50072;50.678;13.938;2023-07-13T08:23:47;3.10;;;1.30;;
63902;SDS011;50072;50.678;13.938;2023-07-13T08:26:13;2.10;;;1.10;;
63902;SDS011;50072;50.678;13.938;2023-07-13T08:28:40;3.80;;;1.33;;
63902;SDS011;50072;50.678;13.938;2023-07-13T08:31:07;3.42;;;1.38;;
63902;SDS011;50072;50.678;13.938;2023-07-13T08:33:34;2.95;;;1.30;;
63902;SDS011;50072;50.678;13.938;2023-07-13T08:36:03;2.15;;;1.10;;
63902;SDS011;50072;50.678;13.938;2023-07-13T08:38:31;3.28;;;1.40;;
63902;SDS011;50072;50.678;13.938;2023-07-13T08:40:58;2.30;;;1.20;;
63902;SDS011;50072;50.678;13.938;2023-07-13T08:43:28;8.25;;;1.40;;
63902;SDS011;50072;50.678;13.938;2023-07-13T08:46:08;2.92;;;1.20;;
63902;SDS011;50072;50.678;13.938;2023-07-13T08:48:44;2.55;;;1.20;;
63902;SDS011;50072;50.678;13.938;2023-07-13T08:54:22;4.18;;;1.33;;
63902;SDS011;50072;50.678;13.938;2023-07-13T08:56:54;2.65;;;1.20;;
63902;SDS011;50072;50.678;13.938;2023-07-13T08:59:27;3.60;;;1.27;;
63902;SDS011;50072;50.678;13.938;2023-07-13T09:07:52;3.40;;;1.30;;
63902;SDS011;50072;50.678;13.938;2023-07-13T09:10:31;4.10;;;1.20;;
63902;SDS011;50072;50.678;13.938;2023-07-13T09:15:56;4.68;;;1.15;;
63902;SDS011;50072;50.678;13.938;2023-07-13T09:23:35;8.38;;;1.30;;
63902;SDS011;50072;50.678;13.938;2023-07-13T09:26:04;4.78;;;1.20;;
63902;SDS011;50072;50.678;13.938;2023-07-13T09:28:47;3.95;;;1.20;;
63902;SDS011;50072;50.678;13.938;2023-07-13T09:31:22;3.55;;;1.20;;
63902;SDS011;50072;50.678;13.938;2023-07-13T09:33:56;5.82;;;1.30;;
63902;SDS011;50072;50.678;13.938;2023-07-13T09:36:26;4.85;;;1.27;;
63902;SDS011;50072;50.678;13.938;2023-07-13T09:39:18;4.38;;;1.10;;
63902;SDS011;50072;50.678;13.938;2023-07-13T09:42:07;4.18;;;1.10;;
63902;SDS011;50072;50.678;13.938;2023-07-13T09:44:52;2.95;;;1.10;;
63902;SDS011;50072;50.678;13.938;2023-07-13T09:49:59;3.53;;;1.48;;
63902;SDS011;50072;50.678;13.938;2023-07-13T09:52:27;3.10;;;1.17;;
63902;SDS011;50072;50.678;13.938;2023-07-13T09:55:11;3.55;;;1.17;;
63902;SDS011;50072;50.678;13.938;2023-07-13T09:57:55;3.17;;;1.17;;
63902;SDS011;50072;50.678;13.938;2023-07-13T10:00:26;4.32;;;1.20;;
63902;SDS011;50072;50.678;13.938;2023-07-13T10:03:04;5.50;;;1.55;;
63902;SDS011;50072;50.678;13.938;2023-07-13T10:05:41;3.22;;;1.38;;
63902;SDS011;50072;50.678;13.938;2023-07-13T10:08:43;3.03;;;1.42;;
63902;SDS011;50072;50.678;13.938;2023-07-13T10:11:22;4.28;;;1.65;;
63902;SDS011;50072;50.678;13.938;2023-07-13T10:14:00;4.28;;;1.40;;
63902;SDS011;50072;50.678;13.938;2023-07-13T10:16:38;2.70;;;1.30;;
63902;SDS011;50072;50.678;13.938;2023-07-13T10:19:16;3.33;;;1.40;;
63902;SDS011;50072;50.678;13.938;2023-07-13T10:24:30;3.33;;;1.20;;
63902;SDS011;50072;50.678;13.938;2023-07-13T10:27:12;2.88;;;1.42;;
63902;SDS011;50072;50.678;13.938;2023-07-13T10:29:45;2.40;;;1.38;;
63902;SDS011;50072;50.678;13.938;2023-07-13T10:32:14;2.40;;;1.40;;
63902;SDS011;50072;50.678;13.938;2023-07-13T10:34:43;2.90;;;1.10;;
63902;SDS011;50072;50.678;13.938;2023-07-13T10:39:44;4.47;;;1.10;;
63902;SDS011;50072;50.678;13.938;2023-07-13T10:42:11;2.67;;;1.33;;
63902;SDS011;50072;50.678;13.938;2023-07-13T10:44:44;2.45;;;1.35;;
63902;SDS011;50072;50.678;13.938;2023-07-13T10:47:12;4.47;;;1.20;;
63902;SDS011;50072;50.678;13.938;2023-07-13T10:49:43;3.05;;;1.35;;
63902;SDS011;50072;50.678;13.938;2023-07-13T10:55:29;3.03;;;1.25;;
63902;SDS011;50072;50.678;13.938;2023-07-13T10:58:15;4.18;;;1.40;;
63902;SDS011;50072;50.678;13.938;2023-07-13T11:00:49;6.65;;;1.60;;
63902;SDS011;50072;50.678;13.938;2023-07-13T11:03:32;3.75;;;1.33;;
63902;SDS011;50072;50.678;13.938;2023-07-13T11:06:47;6.00;;;1.50;;
63902;SDS011;50072;50.678;13.938;2023-07-13T11:08:57;5.00;;;1.60;;
63902;SDS011;50072;50.678;13.938;2023-07-13T11:11:45;2.38;;;1.42;;
63902;SDS011;50072;50.678;13.938;2023-07-13T11:30:38;3.58;;;1.60;;
63902;SDS011;50072;50.678;13.938;2023-07-13T11:33:23;3.33;;;1.40;;
63902;SDS011;50072;50.678;13.938;2023-07-13T11:35:58;9.88;;;1.30;;
63902;SDS011;50072;50.678;13.938;2023-07-13T11:38:43;5.55;;;1.70;;
63902;SDS011;50072;50.678;13.938;2023-07-13T11:43:45;4.28;;;1.30;;
63902;SDS011;50072;50.678;13.938;2023-07-13T11:46:15;3.50;;;1.30;;
63902;SDS011;50072;50.678;13.938;2023-07-13T11:48:49;3.08;;;1.42;;
63902;SDS011;50072;50.678;13.938;2023-07-13T11:51:23;3.55;;;1.52;;
63902;SDS011;50072;50.678;13.938;2023-07-13T11:54:03;4.05;;;1.80;;
63902;SDS011;50072;50.678;13.938;2023-07-13T11:56:32;4.43;;;1.90;;
63902;SDS011;50072;50.678;13.938;2023-07-13T11:59:04;6.63;;;1.60;;
63902;SDS011;50072;50.678;13.938;2023-07-13T12:01:34;5.53;;;1.63;;
63902;SDS011;50072;50.678;13.938;2023-07-13T12:04:10;4.88;;;1.58;;
63902;SDS011;50072;50.678;13.938;2023-07-13T12:06:47;4.30;;;1.45;;
63902;SDS011;50072;50.678;13.938;2023-07-13T12:09:20;4.35;;;1.40;;
63902;SDS011;50072;50.678;13.938;2023-07-13T12:11:50;3.75;;;2.13;;
63902;SDS011;50072;50.678;13.938;2023-07-13T12:14:18;4.05;;;1.90;;
63902;SDS011;50072;50.678;13.938;2023-07-13T12:16:45;3.70;;;1.60;;
63902;SDS011;50072;50.678;13.938;2023-07-13T12:19:23;2.63;;;1.13;;
63902;SDS011;50072;50.678;13.938;2023-07-13T12:21:55;4.20;;;1.30;;
63902;SDS011;50072;50.678;13.938;2023-07-13T12:24:25;3.35;;;1.58;;
63902;SDS011;50072;50.678;13.938;2023-07-13T12:26:54;3.78;;;1.40;;
63902;SDS011;50072;50.678;13.938;2023-07-13T12:29:26;4.05;;;1.20;;
63902;SDS011;50072;50.678;13.938;2023-07-13T12:31:52;3.50;;;1.27;;
63902;SDS011;50072;50.678;13.938;2023-07-13T12:34:20;3.20;;;1.27;;
63902;SDS011;50072;50.678;13.938;2023-07-13T12:36:54;3.17;;;1.15;;
63902;SDS011;50072;50.678;13.938;2023-07-13T12:39:28;2.20;;;1.10;;
63902;SDS011;50072;50.678;13.938;2023-07-13T12:41:59;3.05;;;1.00;;
63902;SDS011;50072;50.678;13.938;2023-07-13T12:44:42;7.75;;;1.33;;
63902;SDS011;50072;50.678;13.938;2023-07-13T12:47:09;1.88;;;0.90;;
63902;SDS011;50072;50.678;13.938;2023-07-13T12:49:43;2.72;;;1.10;;
63902;SDS011;50072;50.678;13.938;2023-07-13T12:52:17;2.42;;;1.20;;
63902;SDS011;50072;50.678;13.938;2023-07-13T12:54:53;4.93;;;1.10;;
63902;SDS011;50072;50.678;13.938;2023-07-13T12:57:25;4.15;;;1.23;;
63902;SDS011;50072;50.678;13.938;2023-07-13T12:59:52;1.90;;;0.90;;
63902;SDS011;50072;50.678;13.938;2023-07-13T13:02:29;2.15;;;1.00;;
63902;SDS011;50072;50.678;13.938;2023-07-13T13:05:02;2.90;;;1.10;;
63902;SDS011;50072;50.678;13.938;2023-07-13T13:07:30;3.40;;;1.30;;
63902;SDS011;50072;50.678;13.938;2023-07-13T13:09:56;2.15;;;1.00;;
63902;SDS011;50072;50.678;13.938;2023-07-13T13:12:23;4.80;;;1.00;;
63902;SDS011;50072;50.678;13.938;2023-07-13T13:14:52;2.58;;;0.85;;
63902;SDS011;50072;50.678;13.938;2023-07-13T13:17:19;2.83;;;0.93;;
63902;SDS011;50072;50.678;13.938;2023-07-13T13:19:49;3.90;;;0.95;;
63902;SDS011;50072;50.678;13.938;2023-07-13T13:22:18;4.07;;;1.02;;
63902;SDS011;50072;50.678;13.938;2023-07-13T13:24:45;3.75;;;1.08;;
63902;SDS011;50072;50.678;13.938;2023-07-13T13:27:16;3.75;;;1.05;;
63902;SDS011;50072;50.678;13.938;2023-07-13T13:29:43;4.78;;;1.25;;
63902;SDS011;50072;50.678;13.938;2023-07-13T13:32:11;5.32;;;1.00;;
63902;SDS011;50072;50.678;13.938;2023-07-13T13:34:39;2.88;;;1.00;;
63902;SDS011;50072;50.678;13.938;2023-07-13T13:37:19;1.88;;;1.00;;
63902;SDS011;50072;50.678;13.938;2023-07-13T13:39:47;2.03;;;1.10;;
63902;SDS011;50072;50.678;13.938;2023-07-13T13:42:14;5.50;;;0.95;;
63902;SDS011;50072;50.678;13.938;2023-07-13T13:44:40;1.90;;;0.95;;
63902;SDS011;50072;50.678;13.938;2023-07-13T13:47:12;2.40;;;1.10;;
63902;SDS011;50072;50.678;13.938;2023-07-13T13:49:53;3.30;;;1.10;;
63902;SDS011;50072;50.678;13.938;2023-07-13T13:52:20;2.78;;;1.00;;
63902;SDS011;50072;50.678;13.938;2023-07-13T13:54:46;3.08;;;1.05;;
63902;SDS011;50072;50.678;13.938;2023-07-13T13:57:12;2.25;;;1.10;;
63902;SDS011;50072;50.678;13.938;2023-07-13T13:59:38;2.28;;;1.00;;
63902;SDS011;50072;50.678;13.938;2023-07-13T14:02:37;3.25;;;1.10;;
63902;SDS011;50072;50.678;13.938;2023-07-13T14:04:58;4.13;;;1.10;;
63902;SDS011;50072;50.678;13.938;2023-07-13T14:07:26;1.92;;;0.85;;
63902;SDS011;50072;50.678;13.938;2023-07-13T14:09:54;3.83;;;1.00;;
63902;SDS011;50072;50.678;13.938;2023-07-13T14:12:22;3.63;;;1.10;;
63902;SDS011;50072;50.678;13.938;2023-07-13T14:14:51;6.82;;;1.08;;
63902;SDS011;50072;50.678;13.938;2023-07-13T14:17:21;4.07;;;1.02;;
63902;SDS011;50072;50.678;13.938;2023-07-13T14:19:53;3.70;;;1.10;;
63902;SDS011;50072;50.678;13.938;2023-07-13T14:22:26;3.50;;;1.00;;
63902;SDS011;50072;50.678;13.938;2023-07-13T14:24:53;4.68;;;1.35;;
63902;SDS011;50072;50.678;13.938;2023-07-13T14:27:20;3.85;;;1.35;;
63902;SDS011;50072;50.678;13.938;2023-07-13T14:29:46;2.17;;;0.90;;
63902;SDS011;50072;50.678;13.938;2023-07-13T14:32:12;4.13;;;1.30;;
63902;SDS011;50072;50.678;13.938;2023-07-13T14:34:39;2.70;;;1.20;;
63902;SDS011;50072;50.678;13.938;2023-07-13T14:37:05;2.75;;;1.13;;
63902;SDS011;50072;50.678;13.938;2023-07-13T14:39:42;3.65;;;1.30;;
63902;SDS011;50072;50.678;13.938;2023-07-13T14:42:09;5.05;;;1.25;;
63902;SDS011;50072;50.678;13.938;2023-07-13T14:44:37;2.97;;;1.20;;
63902;SDS011;50072;50.678;13.938;2023-07-13T14:47:04;1.73;;;1.00;;
63902;SDS011;50072;50.678;13.938;2023-07-13T14:49:41;4.10;;;1.50;;
63902;SDS011;50072;50.678;13.938;2023-07-13T14:52:27;1.90;;;1.02;;
63902;SDS011;50072;50.678;13.938;2023-07-13T14:54:53;3.97;;;1.33;;
63902;SDS011;50072;50.678;13.938;2023-07-13T14:57:20;2.42;;;1.30;;
63902;SDS011;50072;50.678;13.938;2023-07-13T14:59:48;7.35;;;1.75;;
63902;SDS011;50072;50.678;13.938;2023-07-13T15:02:19;3.08;;;1.33;;
63902;SDS011;50072;50.678;13.938;2023-07-13T15:05:00;2.65;;;1.48;;
63902;SDS011;50072;50.678;13.938;2023-07-13T15:07:27;2.70;;;1.00;;
63902;SDS011;50072;50.678;13.938;2023-07-13T15:09:53;2.17;;;1.42;;
63902;SDS011;50072;50.678;13.938;2023-07-13T15:12:19;2.63;;;1.20;;
63902;SDS011;50072;50.678;13.938;2023-07-13T15:14:45;3.05;;;1.30;;
63902;SDS011;50072;50.678;13.938;2023-07-13T15:19:55;4.20;;;1.40;;
63902;SDS011;50072;50.678;13.938;2023-07-13T15:22:21;2.75;;;1.30;;
63902;SDS011;50072;50.678;13.938;2023-07-13T15:24:47;3.13;;;1.40;;
63902;SDS011;50072;50.678;13.938;2023-07-13T15:27:13;3.50;;;1.30;;
63902;SDS011;50072;50.678;13.938;2023-07-13T15:29:40;3.58;;;1.27;;
63902;SDS011;50072;50.678;13.938;2023-07-13T15:32:11;4.13;;;1.45;;
63902;SDS011;50072;50.678;13.938;2023-07-13T15:34:43;4.05;;;1.30;;
63902;SDS011;50072;50.678;13.938;2023-07-13T15:37:15;2.40;;;1.10;;
63902;SDS011;50072;50.678;13.938;2023-07-13T15:39:43;7.00;;;1.13;;